createdAt,value
2019-06-08T00:01:58.184Z,6.47
2019-06-08T00:04:26.709Z,7.60
2019-06-08T00:06:55.280Z,9.87
2019-06-08T00:09:24.152Z,8.30
2019-06-08T00:11:52.781Z,11.13
2019-06-08T00:14:21.511Z,12.67
2019-06-08T00:16:50.154Z,13.60
2019-06-08T00:19:19.400Z,15.37
2019-06-08T00:21:48.038Z,16.57
2019-06-08T00:24:17.734Z,14.93
2019-06-08T00:26:46.417Z,13.40
2019-06-08T00:29:16.144Z,13.70
2019-06-08T00:31:44.869Z,12.43
2019-06-08T00:34:14.493Z,12.83
2019-06-08T00:36:43.133Z,12.43
2019-06-08T00:39:13.008Z,11.17
2019-06-08T00:41:41.552Z,10.00
2019-06-08T00:44:10.066Z,10.40
2019-06-08T00:46:38.653Z,11.60
2019-06-08T00:49:07.126Z,11.40
2019-06-08T00:51:35.715Z,11.47
2019-06-08T00:54:04.513Z,11.40
2019-06-08T00:56:33.041Z,9.93
2019-06-08T00:59:01.652Z,9.20
2019-06-08T01:01:30.885Z,8.60
2019-06-08T01:03:59.566Z,8.67
2019-06-08T01:06:28.144Z,10.47
2019-06-08T01:08:56.743Z,8.80
2019-06-08T01:11:26.678Z,7.83
2019-06-08T01:13:55.647Z,7.27
2019-06-08T01:16:25.027Z,7.57
2019-06-08T01:18:53.805Z,6.90
2019-06-08T01:21:23.289Z,7.27
2019-06-08T01:23:51.932Z,7.17
2019-06-08T01:26:22.136Z,6.50
2019-06-08T01:28:50.793Z,7.13
2019-06-08T01:31:20.370Z,8.07
2019-06-08T01:33:49.051Z,6.37
2019-06-08T01:36:17.556Z,8.73
2019-06-08T01:38:46.037Z,8.10
2019-06-08T01:41:14.569Z,6.80
2019-06-08T01:43:43.076Z,6.60
2019-06-08T01:46:11.543Z,7.63
2019-06-08T01:48:40.062Z,8.20
2019-06-08T01:51:08.598Z,6.30
2019-06-08T01:53:37.121Z,7.30
2019-06-08T01:56:05.657Z,8.03
2019-06-08T01:58:34.177Z,6.27
2019-06-08T02:01:02.639Z,8.63
2019-06-08T02:03:32.648Z,7.60
2019-06-08T02:06:01.359Z,6.33
2019-06-08T02:08:30.641Z,5.30
2019-06-08T02:10:59.222Z,6.10
2019-06-08T02:13:28.875Z,6.77
2019-06-08T02:15:57.541Z,6.23
2019-06-08T02:18:36.469Z,6.07
2019-06-08T02:20:56.338Z,6.47
2019-06-08T02:23:24.876Z,7.13
2019-06-08T02:25:53.347Z,6.87
2019-06-08T02:28:22.085Z,10.17
2019-06-08T02:30:50.624Z,8.77
2019-06-08T02:33:19.148Z,8.43
2019-06-08T02:35:47.644Z,8.33
2019-06-08T02:38:16.101Z,8.53
2019-06-08T02:40:44.777Z,9.70
2019-06-08T02:43:13.548Z,10.07
2019-06-08T02:45:42.335Z,10.80
2019-06-08T02:48:10.950Z,10.90
2019-06-08T02:50:48.510Z,12.07
2019-06-08T02:53:18.584Z,12.33
2019-06-08T02:55:55.135Z,11.40
2019-06-08T02:58:23.740Z,11.53
2019-06-08T03:00:54.241Z,10.83
2019-06-08T03:03:23.184Z,14.20
2019-06-08T03:05:51.800Z,14.10
2019-06-08T03:08:20.822Z,12.00
2019-06-08T03:10:51.562Z,12.50
2019-06-08T03:13:22.089Z,11.60
2019-06-08T03:15:50.630Z,13.90
2019-06-08T03:18:19.161Z,13.50
2019-06-08T03:20:47.681Z,13.87
2019-06-08T03:23:16.148Z,13.90
2019-06-08T03:25:52.513Z,14.43
2019-06-08T03:28:15.011Z,13.13
2019-06-08T03:30:52.440Z,13.73
2019-06-08T03:33:13.931Z,13.73
2019-06-08T03:35:52.452Z,13.80
2019-06-08T03:38:12.662Z,14.53
2019-06-08T03:40:43.399Z,13.63
2019-06-08T03:43:11.351Z,26.03
2019-06-08T03:45:40.756Z,15.67
2019-06-08T03:48:09.924Z,13.93
2019-06-08T03:50:40.201Z,16.00
2019-06-08T03:53:08.619Z,12.80
2019-06-08T03:55:37.996Z,14.30
2019-06-08T03:58:07.081Z,13.23
2019-06-08T04:00:36.367Z,13.77
2019-06-08T04:03:05.426Z,16.87
2019-06-08T04:05:33.946Z,13.47
2019-06-08T04:08:02.406Z,15.57
2019-06-08T04:10:30.915Z,15.53
2019-06-08T04:13:00.038Z,13.47
2019-06-08T04:15:28.514Z,12.10
2019-06-08T04:17:57.220Z,14.07
2019-06-08T04:20:25.758Z,13.80
2019-06-08T04:22:54.223Z,13.47
2019-06-08T04:25:24.058Z,15.83
2019-06-08T04:27:52.526Z,11.37
2019-06-08T04:30:21.333Z,14.43
2019-06-08T04:32:49.843Z,14.67
2019-06-08T04:35:18.303Z,13.43
2019-06-08T04:37:47.043Z,12.47
2019-06-08T04:40:15.921Z,12.73
2019-06-08T04:42:46.635Z,13.17
2019-06-08T04:45:15.266Z,12.87
2019-06-08T04:47:46.136Z,12.30
2019-06-08T04:50:22.464Z,15.23
2019-06-08T04:52:45.010Z,11.83
2019-06-08T04:55:14.325Z,14.50
2019-06-08T04:57:43.370Z,13.73
2019-06-08T05:00:13.776Z,12.37
2019-06-08T05:02:44.702Z,11.93
2019-06-08T05:05:13.114Z,12.20
2019-06-08T05:07:43.681Z,11.67
2019-06-08T05:10:13.118Z,11.50
2019-06-08T05:12:43.254Z,13.32
2019-06-08T05:15:12.376Z,13.50
2019-06-08T05:17:41.363Z,11.70
2019-06-08T05:20:10.536Z,13.07
2019-06-08T05:22:39.393Z,15.33
2019-06-08T05:25:08.549Z,12.57
2019-06-08T05:27:37.015Z,14.23
2019-06-08T05:30:09.044Z,11.93
2019-06-08T05:32:37.705Z,14.80
2019-06-08T05:35:07.820Z,12.40
2019-06-08T05:37:36.401Z,12.77
2019-06-08T05:40:08.209Z,15.73
2019-06-08T05:42:36.757Z,14.40
2019-06-08T05:45:09.268Z,14.25
2019-06-08T05:47:37.993Z,14.27
2019-06-08T05:50:07.372Z,12.83
2019-06-08T05:52:36.103Z,14.10
2019-06-08T05:55:06.575Z,15.03
2019-06-08T05:57:35.170Z,13.77
2019-06-08T06:00:09.028Z,16.57
2019-06-08T06:02:35.949Z,16.73
2019-06-08T06:05:06.327Z,15.50
2019-06-08T06:07:34.861Z,16.80
2019-06-08T06:10:04.273Z,16.30
2019-06-08T06:12:32.726Z,17.47
2019-06-08T06:15:01.204Z,18.50
2019-06-08T06:17:29.749Z,17.30
2019-06-08T06:19:58.270Z,16.55
2019-06-08T06:22:27.141Z,18.20
2019-06-08T06:24:55.679Z,20.27
2019-06-08T06:27:24.223Z,19.23
2019-06-08T06:29:52.756Z,18.62
2019-06-08T06:32:21.395Z,19.10
2019-06-08T06:34:49.982Z,17.43
2019-06-08T06:37:18.665Z,15.88
2019-06-08T06:39:49.983Z,12.40
2019-06-08T06:42:19.031Z,14.63
2019-06-08T06:44:48.957Z,12.85
2019-06-08T06:47:17.953Z,13.83
2019-06-08T06:49:46.514Z,13.70
2019-06-08T06:52:15.172Z,14.47
2019-06-08T06:54:44.747Z,18.87
2019-06-08T06:57:13.352Z,15.17
2019-06-08T06:59:43.171Z,15.05
2019-06-08T07:02:12.271Z,16.02
2019-06-08T07:04:40.807Z,18.63
2019-06-08T07:07:09.277Z,14.57
2019-06-08T07:09:37.799Z,13.72
2019-06-08T07:12:06.329Z,13.30
2019-06-08T07:14:34.798Z,17.70
2019-06-08T07:17:03.495Z,14.80
2019-06-08T07:19:31.967Z,15.70
2019-06-08T07:22:00.432Z,14.03
2019-06-08T07:24:28.969Z,14.40
2019-06-08T07:26:58.749Z,13.87
2019-06-08T07:29:27.376Z,12.17
2019-06-08T07:31:55.928Z,6.33
2019-06-08T07:34:24.402Z,6.60
2019-06-08T07:36:53.390Z,9.83
2019-06-08T07:39:22.170Z,9.40
2019-06-08T07:41:51.722Z,5.90
2019-06-08T07:44:20.348Z,6.12
2019-06-08T07:46:49.332Z,7.20
2019-06-08T07:49:18.034Z,10.43
2019-06-08T07:51:58.722Z,8.55
2019-06-08T07:54:16.847Z,6.87
2019-06-08T07:56:45.313Z,7.93
2019-06-08T07:59:13.946Z,7.97
2019-06-08T08:01:42.479Z,9.07
2019-06-08T08:04:10.990Z,6.60
2019-06-08T08:06:39.713Z,4.50
2019-06-08T08:09:08.785Z,4.73
2019-06-08T08:11:37.251Z,5.10
2019-06-08T08:14:06.053Z,5.80
2019-06-08T08:16:34.646Z,5.30
2019-06-08T08:19:03.187Z,4.67
2019-06-08T08:21:31.679Z,4.87
2019-06-08T08:24:03.101Z,3.73
2019-06-08T08:26:34.383Z,4.23
2019-06-08T08:29:03.262Z,3.37
2019-06-08T08:31:37.289Z,2.90
2019-06-08T08:34:06.061Z,3.00
2019-06-08T08:36:37.935Z,3.07
2019-06-08T08:39:08.355Z,2.90
2019-06-08T08:41:39.049Z,2.70
2019-06-08T08:44:08.033Z,2.40
2019-06-08T08:46:38.725Z,2.40
2019-06-08T08:49:10.364Z,2.60
2019-06-08T08:51:37.808Z,2.17
2019-06-08T08:54:08.546Z,2.23
2019-06-08T08:56:38.327Z,3.23
2019-06-08T08:59:07.859Z,1.80
2019-06-08T09:01:38.354Z,2.00
2019-06-08T09:04:08.803Z,2.20
2019-06-08T09:06:38.122Z,3.27
2019-06-08T09:09:08.916Z,2.20
2019-06-08T09:11:38.358Z,2.40
2019-06-08T09:14:13.688Z,2.87
2019-06-08T09:16:38.451Z,2.30
2019-06-08T09:19:08.530Z,2.47
2019-06-08T09:21:38.341Z,2.50
2019-06-08T09:24:07.767Z,2.62
2019-06-08T09:26:38.260Z,2.55
2019-06-08T09:29:10.829Z,2.45
2019-06-08T09:31:39.129Z,2.80
2019-06-08T09:34:14.125Z,3.05
2019-06-08T09:36:40.804Z,2.60
2019-06-08T09:39:11.247Z,2.98
2019-06-08T09:41:38.676Z,2.90
2019-06-08T09:44:10.653Z,2.87
2019-06-08T09:46:38.529Z,3.75
2019-06-08T09:49:09.374Z,2.30
2019-06-08T09:51:37.961Z,3.80
2019-06-08T09:54:11.813Z,4.55
2019-06-08T09:56:37.961Z,2.80
2019-06-08T09:59:10.474Z,2.60
2019-06-08T10:01:38.451Z,2.50
2019-06-08T10:04:09.188Z,3.00
2019-06-08T10:06:41.052Z,4.08
2019-06-08T10:09:10.328Z,3.17
2019-06-08T10:11:38.870Z,2.90
2019-06-08T10:14:11.670Z,3.00
2019-06-08T10:16:38.258Z,3.00
2019-06-08T10:19:09.764Z,6.00
2019-06-08T10:21:38.512Z,4.08
2019-06-08T10:24:09.568Z,2.42
2019-06-08T10:26:37.704Z,2.65
2019-06-08T10:29:09.907Z,2.55
2019-06-08T10:31:42.988Z,2.62
2019-06-08T10:34:10.915Z,1.98
2019-06-08T10:36:38.313Z,2.72
2019-06-08T10:39:11.456Z,5.35
2019-06-08T10:41:38.887Z,2.50
2019-06-08T10:44:08.574Z,2.45
2019-06-08T10:46:40.307Z,2.55
2019-06-08T10:49:11.884Z,3.17
2019-06-08T10:51:40.801Z,2.47
2019-06-08T10:54:11.046Z,2.65
2019-06-08T10:56:38.935Z,3.70
2019-06-08T10:59:10.484Z,2.42
2019-06-08T11:01:38.526Z,5.70
2019-06-08T11:04:07.614Z,2.33
2019-06-08T11:06:40.011Z,2.00
2019-06-08T11:09:12.660Z,1.80
2019-06-08T11:11:38.470Z,1.80
2019-06-08T11:14:09.784Z,2.17
2019-06-08T11:16:38.557Z,4.10
2019-06-08T11:19:11.444Z,2.65
2019-06-08T11:21:38.595Z,3.27
2019-06-08T11:24:21.581Z,2.62
2019-06-08T11:26:40.131Z,2.90
2019-06-08T11:29:11.784Z,3.17
2019-06-08T11:31:39.196Z,1.95
2019-06-08T11:34:08.581Z,2.45
2019-06-08T11:36:39.380Z,4.85
2019-06-08T11:39:10.879Z,3.55
2019-06-08T11:41:38.617Z,1.60
2019-06-08T11:44:11.087Z,3.17
2019-06-08T11:46:38.403Z,4.00
2019-06-08T11:49:11.691Z,2.47
2019-06-08T11:51:38.038Z,4.83
2019-06-08T11:54:25.460Z,4.08
2019-06-08T11:56:40.244Z,3.80
2019-06-08T11:59:10.626Z,5.85
2019-06-08T12:01:38.001Z,7.05
2019-06-08T12:04:07.739Z,2.42
2019-06-08T12:06:37.706Z,2.37
2019-06-08T12:09:09.525Z,5.45
2019-06-08T12:11:38.277Z,2.87
2019-06-08T12:14:09.224Z,2.00
2019-06-08T12:16:37.816Z,2.52
2019-06-08T12:19:10.002Z,1.90
2019-06-08T12:21:36.647Z,3.52
2019-06-08T12:24:06.206Z,1.92
2019-06-08T12:26:35.003Z,1.60
2019-06-08T12:29:04.937Z,4.47
2019-06-08T12:31:33.809Z,3.17
2019-06-08T12:34:02.266Z,3.10
2019-06-08T12:36:30.821Z,5.58
2019-06-08T12:38:59.597Z,1.60
2019-06-08T12:41:28.893Z,3.27
2019-06-08T12:43:58.243Z,2.47
2019-06-08T12:46:27.949Z,2.12
2019-06-08T12:48:58.277Z,1.70
2019-06-08T12:51:28.053Z,2.15
2019-06-08T12:53:59.890Z,1.40
2019-06-08T12:56:28.773Z,3.20
2019-06-08T12:58:58.040Z,3.02
2019-06-08T13:01:28.193Z,1.15
2019-06-08T13:03:58.184Z,2.27
2019-06-08T13:06:28.291Z,1.52
2019-06-08T13:08:57.814Z,4.05
2019-06-08T13:11:28.246Z,2.95
2019-06-08T13:13:56.968Z,1.60
2019-06-08T13:16:28.202Z,2.98
2019-06-08T13:18:58.538Z,3.95
2019-06-08T13:21:34.691Z,3.70
2019-06-08T13:23:58.179Z,2.20
2019-06-08T13:26:28.667Z,2.92
2019-06-08T13:28:58.335Z,1.85
2019-06-08T13:31:28.727Z,1.70
2019-06-08T13:33:58.649Z,1.62
2019-06-08T13:36:29.571Z,2.25
2019-06-08T13:38:57.516Z,1.37
2019-06-08T13:41:27.187Z,1.60
2019-06-08T13:43:58.070Z,1.40
2019-06-08T13:46:28.210Z,3.85
2019-06-08T13:48:58.541Z,1.50
2019-06-08T13:51:28.156Z,1.85
2019-06-08T13:53:58.155Z,1.30
2019-06-08T13:56:28.507Z,3.15
2019-06-08T13:58:57.288Z,1.42
2019-06-08T14:01:30.471Z,1.62
2019-06-08T14:03:58.133Z,3.17
2019-06-08T14:06:28.482Z,4.28
2019-06-08T14:08:57.975Z,1.50
2019-06-08T14:11:28.129Z,2.40
2019-06-08T14:14:00.825Z,2.40
2019-06-08T14:16:29.385Z,1.42
2019-06-08T14:18:57.466Z,1.55
2019-06-08T14:21:31.973Z,2.12
2019-06-08T14:23:58.588Z,1.17
2019-06-08T14:26:26.391Z,1.90
2019-06-08T14:28:54.851Z,1.75
2019-06-08T14:31:23.990Z,5.87
2019-06-08T14:33:53.782Z,1.95
2019-06-08T14:36:23.272Z,1.60
2019-06-08T14:38:52.601Z,2.72
2019-06-08T14:41:21.263Z,4.37
2019-06-08T14:43:50.853Z,2.05
2019-06-08T14:46:21.133Z,3.92
2019-06-08T14:48:49.784Z,7.90
2019-06-08T14:51:18.711Z,1.32
2019-06-08T14:53:48.570Z,2.80
2019-06-08T14:56:19.456Z,3.02
2019-06-08T14:58:48.326Z,3.92
2019-06-08T15:01:19.510Z,1.50
2019-06-08T15:03:48.187Z,1.47
2019-06-08T15:06:17.796Z,4.28
2019-06-08T15:08:50.058Z,1.90
2019-06-08T15:11:17.928Z,1.50
2019-06-08T15:13:48.721Z,4.37
2019-06-08T15:16:18.149Z,1.30
2019-06-08T15:18:47.022Z,2.75
2019-06-08T15:21:17.979Z,1.57
2019-06-08T15:23:47.700Z,1.80
2019-06-08T15:26:26.649Z,3.47
2019-06-08T15:28:48.597Z,2.17
2019-06-08T15:31:18.104Z,1.52
2019-06-08T15:33:48.237Z,1.82
2019-06-08T15:36:20.246Z,3.42
2019-06-08T15:38:47.985Z,2.33
2019-06-08T15:41:20.767Z,1.57
2019-06-08T15:43:48.157Z,3.77
2019-06-08T15:46:18.351Z,2.80
2019-06-08T15:48:48.758Z,1.62
2019-06-08T15:51:17.378Z,4.87
2019-06-08T15:53:49.015Z,2.17
2019-06-08T15:56:18.708Z,4.22
2019-06-08T15:58:48.687Z,1.52
2019-06-08T16:01:17.405Z,2.00
2019-06-08T16:03:48.637Z,3.15
2019-06-08T16:06:17.103Z,3.45
2019-06-08T16:08:46.444Z,3.45
2019-06-08T16:11:14.995Z,1.80
2019-06-08T16:13:43.577Z,1.92
2019-06-08T16:16:12.076Z,1.92
2019-06-08T16:18:40.540Z,3.10
2019-06-08T16:21:09.002Z,2.60
2019-06-08T16:23:37.539Z,3.50
2019-06-08T16:26:06.205Z,5.37
2019-06-08T16:28:34.675Z,3.83
2019-06-08T16:31:05.474Z,2.35
2019-06-08T16:33:33.682Z,3.05
2019-06-08T16:36:02.360Z,3.77
2019-06-08T16:38:32.283Z,1.82
2019-06-08T16:41:01.051Z,2.12
2019-06-08T16:43:30.952Z,3.62
2019-06-08T16:45:59.603Z,1.92
2019-06-08T16:48:28.140Z,5.17
2019-06-08T16:50:56.617Z,2.83
2019-06-08T16:53:25.116Z,2.30
2019-06-08T16:55:53.573Z,3.72
2019-06-08T16:58:22.046Z,2.15
2019-06-08T17:00:51.018Z,3.75
2019-06-08T17:03:19.895Z,1.80
2019-06-08T17:05:48.806Z,2.17
2019-06-08T17:08:17.525Z,2.77
2019-06-08T17:10:46.400Z,3.58
2019-06-08T17:13:14.877Z,3.17
2019-06-08T17:15:43.651Z,2.47
2019-06-08T17:18:12.320Z,2.20
2019-06-08T17:20:41.029Z,2.85
2019-06-08T17:23:10.078Z,1.80
2019-06-08T17:25:38.870Z,3.03
2019-06-08T17:28:07.736Z,1.72
2019-06-08T17:30:37.604Z,3.02
2019-06-08T17:33:06.242Z,1.82
2019-06-08T17:35:35.605Z,2.15
2019-06-08T17:38:04.361Z,2.67
2019-06-08T17:40:34.199Z,6.07
2019-06-08T17:43:02.806Z,3.95
2019-06-08T17:45:32.281Z,2.45
2019-06-08T17:48:01.820Z,2.70
2019-06-08T17:50:30.281Z,2.85
2019-06-08T17:52:58.941Z,2.33
2019-06-08T17:55:27.650Z,3.60
2019-06-08T17:57:56.126Z,2.02
2019-06-08T18:00:25.106Z,4.40
2019-06-08T18:02:53.869Z,1.87
2019-06-08T18:05:22.337Z,2.35
2019-06-08T18:07:51.204Z,1.72
2019-06-08T18:10:19.971Z,2.62
2019-06-08T18:12:49.311Z,1.87
2019-06-08T18:15:18.380Z,1.90
2019-06-08T18:17:48.231Z,2.57
2019-06-08T18:20:17.867Z,4.27
2019-06-08T18:22:49.143Z,1.97
2019-06-08T18:25:17.656Z,3.00
2019-06-08T18:28:02.720Z,1.80
2019-06-08T18:30:19.041Z,3.12
2019-06-08T18:32:48.586Z,2.57
2019-06-08T18:35:18.264Z,2.97
2019-06-08T18:37:48.644Z,1.80
2019-06-08T18:40:18.320Z,2.13
2019-06-08T18:42:48.736Z,1.87
2019-06-08T18:45:18.790Z,1.80
2019-06-08T18:47:48.365Z,2.00
2019-06-08T18:50:17.552Z,3.00
2019-06-08T18:52:49.423Z,2.27
2019-06-08T18:55:18.324Z,5.17
2019-06-08T18:57:49.027Z,1.90
2019-06-08T19:00:17.911Z,1.90
2019-06-08T19:02:50.054Z,3.23
2019-06-08T19:05:18.158Z,3.93
2019-06-08T19:07:51.625Z,7.20
2019-06-08T19:10:37.834Z,2.53
2019-06-08T19:13:06.641Z,3.43
2019-06-08T19:15:44.450Z,2.57
2019-06-08T19:18:10.565Z,2.43
2019-06-08T19:20:43.156Z,4.53
2019-06-08T19:23:09.537Z,1.70
2019-06-08T19:25:42.175Z,1.97
2019-06-08T19:28:08.499Z,2.30
2019-06-08T19:30:39.474Z,2.10
2019-06-08T19:33:07.528Z,3.63
2019-06-08T19:35:36.023Z,2.57
2019-06-08T19:38:04.625Z,1.80
2019-06-08T19:40:33.139Z,3.60
2019-06-08T19:43:01.763Z,2.10
2019-06-08T19:45:30.490Z,1.90
2019-06-08T19:47:59.191Z,1.80
2019-06-08T19:50:28.635Z,1.93
2019-06-08T19:52:57.990Z,2.43
2019-06-08T19:55:26.785Z,2.23
2019-06-08T19:57:57.010Z,3.00
2019-06-08T20:00:28.288Z,4.10
2019-06-08T20:02:58.063Z,4.10
2019-06-08T20:05:28.473Z,3.40
2019-06-08T20:07:57.423Z,3.40
2019-06-08T20:10:28.012Z,2.17
2019-06-08T20:12:57.892Z,1.87
2019-06-08T20:15:26.589Z,2.47
2019-06-08T20:17:57.269Z,2.90
2019-06-08T20:20:27.723Z,9.10
2019-06-08T20:22:55.636Z,4.23
2019-06-08T20:25:24.465Z,3.47
2019-06-08T20:27:53.734Z,3.27
2019-06-08T20:30:22.447Z,5.07
2019-06-08T20:32:52.439Z,1.77
2019-06-08T20:35:21.205Z,6.37
2019-06-08T20:37:50.037Z,3.40
2019-06-08T20:40:18.791Z,2.93
2019-06-08T20:42:49.951Z,2.73
2019-06-08T20:45:17.713Z,4.60
2019-06-08T20:47:49.446Z,2.77
2019-06-08T20:50:17.595Z,2.83
2019-06-08T20:52:49.303Z,3.40
2019-06-08T20:55:17.506Z,3.50
2019-06-08T20:57:49.082Z,3.47
2019-06-08T21:00:16.669Z,2.67
2019-06-08T21:02:46.410Z,2.90
2019-06-08T21:05:15.379Z,3.40
2019-06-08T21:07:45.016Z,2.10
2019-06-08T21:10:14.144Z,4.13
2019-06-08T21:12:42.601Z,4.43
2019-06-08T21:15:11.193Z,2.83
2019-06-08T21:17:39.688Z,2.93
2019-06-08T21:20:08.670Z,4.07
2019-06-08T21:22:37.438Z,3.83
2019-06-08T21:25:08.734Z,5.90
2019-06-08T21:27:38.487Z,5.83
2019-06-08T21:30:20.297Z,4.27
2019-06-08T21:32:41.009Z,3.83
2019-06-08T21:35:09.529Z,2.10
2019-06-08T21:37:37.984Z,3.40
2019-06-08T21:40:08.547Z,5.67
2019-06-08T21:42:37.206Z,3.60
2019-06-08T21:45:09.715Z,4.10
2019-06-08T21:47:38.503Z,5.33
2019-06-08T21:50:08.285Z,3.93
2019-06-08T21:52:36.806Z,5.00
2019-06-08T21:55:07.315Z,2.70
2019-06-08T21:57:37.140Z,2.77
2019-06-08T22:00:22.813Z,4.60
2019-06-08T22:02:38.295Z,4.73
2019-06-08T22:05:08.296Z,2.83
2019-06-08T22:07:37.692Z,2.73
2019-06-08T22:10:08.092Z,4.73
2019-06-08T22:12:39.949Z,4.93
2019-06-08T22:15:08.016Z,2.50
2019-06-08T22:17:38.263Z,3.40
2019-06-08T22:20:08.803Z,6.00
2019-06-08T22:22:37.862Z,2.90
2019-06-08T22:25:08.313Z,3.13
2019-06-08T22:27:38.178Z,3.67
2019-06-08T22:30:13.421Z,3.50
2019-06-08T22:32:38.573Z,7.07
2019-06-08T22:35:08.020Z,3.27
2019-06-08T22:37:37.968Z,4.77
2019-06-08T22:40:08.171Z,4.63
2019-06-08T22:42:37.576Z,2.60
2019-06-08T22:45:08.272Z,3.80
2019-06-08T22:47:38.760Z,2.70
2019-06-08T22:50:08.358Z,4.03
2019-06-08T22:52:37.614Z,5.87
2019-06-08T22:55:10.660Z,2.57
2019-06-08T22:57:37.891Z,4.03
2019-06-08T23:00:16.276Z,2.90
2019-06-08T23:02:38.430Z,6.13
2019-06-08T23:05:09.076Z,4.47
2019-06-08T23:07:37.954Z,2.57
2019-06-08T23:10:08.971Z,3.17
2019-06-08T23:12:38.316Z,2.80
2019-06-08T23:15:09.374Z,4.30
2019-06-08T23:17:38.677Z,5.20
2019-06-08T23:20:08.627Z,4.97
2019-06-08T23:22:38.405Z,3.60
2019-06-08T23:25:09.317Z,2.73
2019-06-08T23:27:38.211Z,2.20
2019-06-08T23:30:10.068Z,3.20
2019-06-08T23:32:39.344Z,5.30
2019-06-08T23:35:09.541Z,3.53
2019-06-08T23:37:38.384Z,6.13
2019-06-08T23:40:07.932Z,2.97
2019-06-08T23:42:38.256Z,4.50
2019-06-08T23:45:10.485Z,2.73
2019-06-08T23:47:38.770Z,2.67
2019-06-08T23:50:11.006Z,3.73
2019-06-08T23:52:38.591Z,5.83
2019-06-08T23:55:11.367Z,2.93
2019-06-08T23:57:38.144Z,2.73
